createdAt,value
2023-05-22T00:00:27.400Z,97883.28
2023-05-22T00:02:47.039Z,97882.47
2023-05-22T00:04:52.250Z,97878.97
2023-05-22T00:06:57.240Z,97881.34
2023-05-22T00:09:10.508Z,97884.84
2023-05-22T00:11:22.563Z,97872.59
2023-05-22T00:13:30.471Z,97865.63
2023-05-22T00:15:36.662Z,97874.38
2023-05-22T00:17:55.654Z,97870.91
2023-05-22T00:20:04.746Z,97867.97
2023-05-22T00:22:09.668Z,97872.38
2023-05-22T00:24:14.578Z,97866.09
2023-05-22T00:26:23.590Z,97860.81
2023-05-22T00:28:28.759Z,97866.59
2023-05-22T00:30:33.693Z,97870.03
2023-05-22T00:32:38.994Z,97861.38
2023-05-22T00:35:04.112Z,97865.84
2023-05-22T00:37:09.023Z,97864.44
2023-05-22T00:39:14.191Z,97858.44
2023-05-22T00:41:22.495Z,97865.88
2023-05-22T00:43:27.551Z,97860.88
2023-05-22T00:45:32.516Z,97868.94
2023-05-22T00:47:37.549Z,97865.72
2023-05-22T00:49:42.996Z,97864.03
2023-05-22T00:51:49.151Z,97868.47
2023-05-22T00:53:54.870Z,97865.09
2023-05-22T00:56:04.268Z,97856.38
2023-05-22T00:58:17.340Z,97864.16
2023-05-22T01:00:23.194Z,97868.63
2023-05-22T01:02:38.775Z,97862.47
2023-05-22T01:04:45.786Z,97860.69
2023-05-22T01:06:51.273Z,97862.34
2023-05-22T01:08:56.781Z,97862.34
2023-05-22T01:11:05.143Z,97868.88
2023-05-22T01:13:25.317Z,97868.88
2023-05-22T01:15:39.750Z,97858.44
2023-05-22T01:17:53.456Z,97862.97
2023-05-22T01:20:10.495Z,97869.34
2023-05-22T01:22:30.450Z,97858.72
2023-05-22T01:25:05.626Z,97867.03
2023-05-22T01:27:58.477Z,97861.22
2023-05-22T01:30:21.315Z,97866.94
2023-05-22T01:32:30.455Z,97871.53
2023-05-22T01:34:38.660Z,97874.16
2023-05-22T01:36:44.890Z,97878.38
2023-05-22T01:38:50.277Z,97881.00
2023-05-22T01:40:56.798Z,97881.94
2023-05-22T01:43:02.047Z,97881.25
2023-05-22T01:45:07.219Z,97880.88
2023-05-22T01:47:12.163Z,97885.56
2023-05-22T01:49:19.920Z,97879.47
2023-05-22T01:51:32.110Z,97880.19
2023-05-22T01:53:45.241Z,97881.84
2023-05-22T01:56:01.388Z,97880.63
2023-05-22T01:58:18.105Z,97879.69
2023-05-22T02:00:29.993Z,97876.94
2023-05-22T02:02:37.698Z,97878.72
2023-05-22T02:05:07.969Z,97876.47
2023-05-22T02:07:16.931Z,97882.22
2023-05-22T02:09:33.916Z,97884.00
2023-05-22T02:11:42.284Z,97883.31
2023-05-22T02:13:47.354Z,97878.28
2023-05-22T02:15:52.775Z,97884.00
2023-05-22T02:18:13.081Z,97885.22
2023-05-22T02:20:22.100Z,97886.44
2023-05-22T02:22:27.368Z,97883.19
2023-05-22T02:24:37.401Z,97887.63
2023-05-22T02:26:42.754Z,97882.59
2023-05-22T02:28:47.728Z,97882.72
2023-05-22T02:30:52.938Z,97880.78
2023-05-22T02:32:58.574Z,97879.72
2023-05-22T02:35:03.760Z,97879.84
2023-05-22T02:37:16.019Z,97875.53
2023-05-22T02:39:23.077Z,97873.13
2023-05-22T02:41:32.235Z,97874.81
2023-05-22T02:43:37.313Z,97869.91
2023-05-22T02:46:05.983Z,97871.22
2023-05-22T02:48:11.459Z,97875.13
2023-05-22T02:50:16.652Z,97867.22
2023-05-22T02:52:33.784Z,97875.97
2023-05-22T02:54:38.816Z,97870.84
2023-05-22T02:57:08.515Z,97870.94
2023-05-22T02:59:13.508Z,97871.91
2023-05-22T03:01:18.787Z,97873.72
2023-05-22T03:03:25.401Z,97871.78
2023-05-22T03:05:31.588Z,97872.88
2023-05-22T03:07:40.563Z,97879.81
2023-05-22T03:09:54.324Z,97872.97
2023-05-22T03:11:59.020Z,97877.88
2023-05-22T03:14:04.658Z,97879.94
2023-05-22T03:16:10.125Z,97871.91
2023-05-22T03:18:20.008Z,97879.78
2023-05-22T03:20:24.879Z,97878.13
2023-05-22T03:22:29.883Z,97886.72
2023-05-22T03:24:37.562Z,97881.22
2023-05-22T03:26:49.472Z,97876.91
2023-05-22T03:29:01.985Z,97875.25
2023-05-22T03:31:09.583Z,97880.75
2023-05-22T03:33:29.436Z,97884.56
2023-05-22T03:35:34.483Z,97889.13
2023-05-22T03:37:39.580Z,97881.47
2023-05-22T03:40:04.433Z,97884.31
2023-05-22T03:42:13.702Z,97887.78
2023-05-22T03:47:08.385Z,97881.66
2023-05-22T03:49:13.486Z,97879.41
2023-05-22T03:51:20.260Z,97883.84
2023-05-22T03:53:25.527Z,97882.13
2023-05-22T03:55:31.410Z,97877.75
2023-05-22T03:57:38.950Z,97879.16
2023-05-22T04:00:06.566Z,97877.63
2023-05-22T04:02:17.730Z,97881.34
2023-05-22T04:04:22.865Z,97878.69
2023-05-22T04:06:33.126Z,97875.97
2023-05-22T04:08:38.115Z,97883.72
2023-05-22T04:10:46.750Z,97879.44
2023-05-22T04:12:54.864Z,97887.31
2023-05-22T04:14:59.841Z,97889.00
2023-05-22T04:17:04.756Z,97892.59
2023-05-22T04:19:09.851Z,97899.41
2023-05-22T04:21:14.898Z,97899.53
2023-05-22T04:23:19.852Z,97898.22
2023-05-22T04:25:25.006Z,97894.63
2023-05-22T04:27:31.017Z,97889.00
2023-05-22T04:29:41.757Z,97892.84
2023-05-22T04:31:47.908Z,97894.53
2023-05-22T04:33:54.789Z,97889.78
2023-05-22T04:36:00.783Z,97893.00
2023-05-22T04:38:09.208Z,97886.78
2023-05-22T04:40:15.582Z,97887.59
2023-05-22T04:42:20.760Z,97893.59
2023-05-22T04:44:26.009Z,97894.09
2023-05-22T04:46:34.640Z,97891.69
2023-05-22T04:48:40.432Z,97893.84
2023-05-22T04:50:46.606Z,97902.00
2023-05-22T04:52:51.816Z,97894.31
2023-05-22T04:54:58.806Z,97894.44
2023-05-22T04:57:05.897Z,97903.75
2023-05-22T04:59:11.717Z,97904.72
2023-05-22T05:01:17.168Z,97897.31
2023-05-22T05:03:25.938Z,97900.03
2023-05-22T05:05:31.094Z,97901.59
2023-05-22T05:07:36.696Z,97895.56
2023-05-22T05:09:41.789Z,97893.84
2023-05-22T05:11:46.828Z,97893.97
2023-05-22T05:13:51.871Z,97889.16
2023-05-22T05:15:57.968Z,97888.94
2023-05-22T05:18:03.077Z,97886.28
2023-05-22T05:20:11.061Z,97891.22
2023-05-22T05:22:16.250Z,97888.56
2023-05-22T05:24:21.128Z,97887.00
2023-05-22T05:26:27.422Z,97889.16
2023-05-22T05:28:32.807Z,97898.34
2023-05-22T05:30:38.944Z,97898.25
2023-05-22T05:32:57.970Z,97891.88
2023-05-22T05:35:13.829Z,97890.16
2023-05-22T05:37:23.265Z,97892.06
2023-05-22T05:39:28.790Z,97894.75
2023-05-22T05:41:35.651Z,97886.56
2023-05-22T05:43:45.713Z,97893.97
2023-05-22T05:45:50.599Z,97899.00
2023-05-22T05:47:58.269Z,97894.44
2023-05-22T05:50:03.591Z,97898.22
2023-05-22T05:52:13.334Z,97903.13
2023-05-22T05:54:19.106Z,97895.31
2023-05-22T05:56:25.930Z,97902.47
2023-05-22T05:58:31.676Z,97900.19
2023-05-22T06:00:56.206Z,97899.34
2023-05-22T06:03:02.334Z,97905.22
2023-05-22T06:05:29.624Z,97899.50
2023-05-22T06:07:48.794Z,97903.59
2023-05-22T06:09:53.840Z,97900.22
2023-05-22T06:12:19.133Z,97907.78
2023-05-22T06:14:24.106Z,97902.66
2023-05-22T06:16:29.722Z,97903.34
2023-05-22T06:18:34.931Z,97901.03
2023-05-22T06:20:41.334Z,97901.47
2023-05-22T06:22:49.172Z,97902.47
2023-05-22T06:24:54.595Z,97899.72
2023-05-22T06:27:02.714Z,97896.00
2023-05-22T06:29:09.100Z,97907.41
2023-05-22T06:31:15.668Z,97893.81
2023-05-22T06:33:23.352Z,97895.28
2023-05-22T06:35:28.838Z,97895.44
2023-05-22T06:37:35.951Z,97901.56
2023-05-22T06:39:43.993Z,97891.97
2023-05-22T06:42:00.617Z,97892.78
2023-05-22T06:44:26.355Z,97896.97
2023-05-22T06:46:34.877Z,97888.78
2023-05-22T06:48:42.143Z,97891.84
2023-05-22T06:50:52.336Z,97892.13
2023-05-22T06:52:57.070Z,97886.13
2023-05-22T06:55:05.932Z,97890.44
2023-05-22T06:57:24.235Z,97897.66
2023-05-22T06:59:29.594Z,97894.09
2023-05-22T07:01:43.341Z,97897.69
2023-05-22T07:03:52.424Z,97899.91
2023-05-22T07:06:13.647Z,97900.72
2023-05-22T07:08:19.041Z,97903.22
2023-05-22T07:10:27.983Z,97895.97
2023-05-22T07:12:34.477Z,97900.00
2023-05-22T07:14:41.625Z,97895.47
2023-05-22T07:16:47.044Z,97896.28
2023-05-22T07:18:57.222Z,97889.16
2023-05-22T07:21:03.290Z,97894.00
2023-05-22T07:23:09.388Z,97894.44
2023-05-22T07:25:16.097Z,97887.13
2023-05-22T07:27:24.523Z,97894.59
2023-05-22T07:29:29.619Z,97884.69
2023-05-22T07:31:37.236Z,97892.41
2023-05-22T07:33:43.495Z,97885.53
2023-05-22T07:35:49.182Z,97889.78
2023-05-22T07:37:56.723Z,97894.03
2023-05-22T07:40:02.313Z,97887.16
2023-05-22T07:42:09.434Z,97881.75
2023-05-22T07:44:23.952Z,97878.94
2023-05-22T07:46:29.065Z,97880.25
2023-05-22T07:48:40.320Z,97879.91
2023-05-22T07:50:46.001Z,97881.69
2023-05-22T07:52:52.040Z,97891.41
2023-05-22T07:54:57.388Z,97877.34
2023-05-22T07:57:04.599Z,97884.38
2023-05-22T07:59:15.295Z,97878.31
2023-05-22T08:01:22.832Z,97882.00
2023-05-22T08:03:28.040Z,97880.09
2023-05-22T08:05:33.204Z,97880.59
2023-05-22T08:07:38.037Z,97877.66
2023-05-22T08:09:46.280Z,97875.56
2023-05-22T08:11:51.260Z,97878.66
2023-05-22T08:13:56.047Z,97871.81
2023-05-22T08:16:01.667Z,97874.16
2023-05-22T08:18:09.651Z,97881.69
2023-05-22T08:20:15.848Z,97872.09
2023-05-22T08:22:20.790Z,97876.78
2023-05-22T08:24:31.219Z,97873.63
2023-05-22T08:26:36.281Z,97862.50
2023-05-22T08:28:44.330Z,97861.25
2023-05-22T08:30:49.352Z,97871.59
2023-05-22T08:32:54.065Z,97867.28
2023-05-22T08:35:02.409Z,97866.25
2023-05-22T08:37:07.651Z,97870.28
2023-05-22T08:39:13.225Z,97876.47
2023-05-22T08:41:18.946Z,97867.81
2023-05-22T08:43:24.148Z,97865.81
2023-05-22T08:45:34.149Z,97863.84
2023-05-22T08:47:42.532Z,97865.34
2023-05-22T08:49:51.863Z,97855.69
2023-05-22T08:52:06.476Z,97857.34
2023-05-22T08:54:12.689Z,97857.25
2023-05-22T08:56:18.138Z,97857.56
2023-05-22T08:58:23.672Z,97860.56
2023-05-22T09:00:29.881Z,97844.06
2023-05-22T09:02:36.314Z,97849.06
2023-05-22T09:04:43.821Z,97852.56
2023-05-22T09:06:50.782Z,97854.41
2023-05-22T09:08:58.798Z,97852.22
2023-05-22T09:11:03.716Z,97851.38
2023-05-22T09:13:12.778Z,97845.88
2023-05-22T09:15:20.610Z,97851.53
2023-05-22T09:17:25.896Z,97850.81
2023-05-22T09:19:31.011Z,97845.66
2023-05-22T09:21:37.098Z,97846.47
2023-05-22T09:23:42.199Z,97840.16
2023-05-22T09:25:49.936Z,97847.69
2023-05-22T09:27:54.865Z,97841.22
2023-05-22T09:30:00.181Z,97839.72
2023-05-22T09:32:05.289Z,97838.34
2023-05-22T09:34:11.496Z,97833.69
2023-05-22T09:36:16.431Z,97844.06
2023-05-22T09:38:21.742Z,97837.88
2023-05-22T09:40:27.009Z,97840.03
2023-05-22T09:42:36.197Z,97823.72
2023-05-22T09:44:42.791Z,97828.16
2023-05-22T09:46:49.294Z,97831.84
2023-05-22T09:48:54.831Z,97835.69
2023-05-22T09:51:03.665Z,97826.66
2023-05-22T09:53:09.135Z,97823.00
2023-05-22T09:55:16.155Z,97828.00
2023-05-22T09:57:23.341Z,97822.47
2023-05-22T09:59:33.510Z,97817.97
2023-05-22T10:01:39.671Z,97814.78
2023-05-22T10:03:49.306Z,97816.06
2023-05-22T10:05:57.392Z,97811.63
2023-05-22T10:08:12.103Z,97807.28
2023-05-22T10:10:20.290Z,97800.25
2023-05-22T10:12:27.779Z,97803.75
2023-05-22T10:14:37.556Z,97794.19
2023-05-22T10:16:43.428Z,97799.19
2023-05-22T10:18:50.467Z,97794.75
2023-05-22T10:20:56.281Z,97787.16
2023-05-22T10:23:02.488Z,97798.19
2023-05-22T10:25:10.778Z,97793.13
2023-05-22T10:27:16.019Z,97786.19
2023-05-22T10:29:27.116Z,97796.53
2023-05-22T10:31:43.990Z,97782.66
2023-05-22T10:34:10.953Z,97787.22
2023-05-22T10:36:23.135Z,97791.03
2023-05-22T10:39:04.873Z,97791.84
2023-05-22T10:41:10.385Z,97794.03
2023-05-22T10:43:15.513Z,97782.44
2023-05-22T10:45:20.751Z,97793.06
2023-05-22T10:47:29.284Z,97795.16
2023-05-22T10:49:34.762Z,97784.84
2023-05-22T10:51:40.860Z,97789.56
2023-05-22T10:53:46.607Z,97784.25
2023-05-22T10:56:01.576Z,97783.06
2023-05-22T10:58:16.359Z,97783.06
2023-05-22T11:00:21.949Z,97783.81
2023-05-22T11:02:32.390Z,97787.56
2023-05-22T11:04:37.376Z,97778.22
2023-05-22T11:06:45.764Z,97778.06
2023-05-22T11:08:53.162Z,97774.72
2023-05-22T11:11:00.150Z,97771.28
2023-05-22T11:13:14.136Z,97768.63
2023-05-22T11:15:19.292Z,97769.59
2023-05-22T11:17:26.205Z,97761.00
2023-05-22T11:19:34.016Z,97766.34
2023-05-22T11:21:45.132Z,97759.53
2023-05-22T11:23:50.476Z,97770.81
2023-05-22T11:25:55.813Z,97770.81
2023-05-22T11:28:01.394Z,97766.47
2023-05-22T11:30:07.692Z,97772.09
2023-05-22T11:32:15.452Z,97764.75
2023-05-22T11:34:20.484Z,97753.84
2023-05-22T11:36:30.629Z,97758.47
2023-05-22T11:38:38.733Z,97752.47
2023-05-22T11:40:43.701Z,97750.03
2023-05-22T11:42:49.741Z,97756.41
2023-05-22T11:44:55.007Z,97746.75
2023-05-22T11:47:00.314Z,97747.78
2023-05-22T11:49:06.802Z,97743.81
2023-05-22T11:51:12.478Z,97739.56
2023-05-22T11:53:20.137Z,97738.44
2023-05-22T11:55:26.423Z,97736.88
2023-05-22T11:57:32.207Z,97738.91
2023-05-22T11:59:37.192Z,97747.28
2023-05-22T12:01:42.187Z,97739.09
2023-05-22T12:03:47.197Z,97731.91
2023-05-22T12:05:53.639Z,97737.91
2023-05-22T12:08:00.765Z,97736.88
2023-05-22T12:10:09.395Z,97729.06
2023-05-22T12:12:14.678Z,97723.50
2023-05-22T12:14:19.733Z,97731.91
2023-05-22T12:16:25.466Z,97722.13
2023-05-22T12:18:30.516Z,97722.69
2023-05-22T12:20:38.075Z,97724.44
2023-05-22T12:22:44.744Z,97728.38
2023-05-22T12:24:49.694Z,97722.97
2023-05-22T12:26:57.015Z,97726.75
2023-05-22T12:29:02.880Z,97725.16
2023-05-22T12:31:08.057Z,97718.38
2023-05-22T12:33:16.903Z,97721.19
2023-05-22T12:35:25.640Z,97728.00
2023-05-22T12:37:32.015Z,97716.44
2023-05-22T12:39:37.053Z,97715.75
2023-05-22T12:41:42.238Z,97717.03
2023-05-22T12:43:49.841Z,97717.09
2023-05-22T12:45:55.044Z,97715.91
2023-05-22T12:48:00.080Z,97709.25
2023-05-22T12:50:05.131Z,97714.22
2023-05-22T12:52:10.093Z,97714.09
2023-05-22T12:54:15.575Z,97718.84
2023-05-22T12:56:20.535Z,97715.81
2023-05-22T12:58:25.457Z,97715.06
2023-05-22T13:00:33.037Z,97710.06
2023-05-22T13:02:38.177Z,97711.34
2023-05-22T13:04:43.173Z,97702.03
2023-05-22T13:06:48.290Z,97706.28
2023-05-22T13:08:54.562Z,97702.91
2023-05-22T13:10:59.687Z,97698.50
2023-05-22T13:13:04.672Z,97705.69
2023-05-22T13:15:13.106Z,97696.59
2023-05-22T13:17:21.106Z,97688.69
2023-05-22T13:19:26.408Z,97702.75
2023-05-22T13:21:31.785Z,97692.72
2023-05-22T13:23:36.848Z,97690.91
2023-05-22T13:25:41.977Z,97692.13
2023-05-22T13:27:51.720Z,97684.13
2023-05-22T13:29:56.643Z,97692.75
2023-05-22T13:32:01.644Z,97677.91
2023-05-22T13:34:09.690Z,97690.41
2023-05-22T13:36:16.016Z,97687.72
2023-05-22T13:38:21.099Z,97689.19
2023-05-22T13:40:26.245Z,97684.03
2023-05-22T13:42:31.433Z,97689.91
2023-05-22T13:44:39.708Z,97679.03
2023-05-22T13:46:44.624Z,97682.38
2023-05-22T13:48:49.681Z,97683.41
2023-05-22T13:50:57.291Z,97683.25
2023-05-22T13:53:02.251Z,97678.75
2023-05-22T13:55:07.830Z,97679.00
2023-05-22T13:57:12.792Z,97681.91
2023-05-22T13:59:17.776Z,97681.28
2023-05-22T14:01:22.838Z,97677.13
2023-05-22T14:03:27.833Z,97677.78
2023-05-22T14:05:32.917Z,97669.09
2023-05-22T14:07:44.066Z,97671.38
2023-05-22T14:09:49.009Z,97672.81
2023-05-22T14:11:56.722Z,97670.72
2023-05-22T14:14:01.734Z,97663.66
2023-05-22T14:16:06.943Z,97668.19
2023-05-22T14:18:34.844Z,97650.97
2023-05-22T14:20:40.029Z,97662.22
2023-05-22T14:22:57.260Z,97654.53
2023-05-22T14:25:03.302Z,97653.72
2023-05-22T14:27:09.119Z,97647.09
2023-05-22T14:29:14.588Z,97654.97
2023-05-22T14:31:20.232Z,97644.13
2023-05-22T14:33:25.284Z,97651.03
2023-05-22T14:35:42.934Z,97646.28
2023-05-22T14:38:02.067Z,97642.19
2023-05-22T14:40:08.010Z,97644.25
2023-05-22T14:42:12.918Z,97640.06
2023-05-22T14:44:36.197Z,97648.34
2023-05-22T14:46:41.269Z,97646.63
2023-05-22T14:48:46.250Z,97646.84
2023-05-22T14:50:56.436Z,97644.13
2023-05-22T14:53:04.043Z,97646.94
2023-05-22T14:55:09.470Z,97647.44
2023-05-22T14:57:14.580Z,97648.84
2023-05-22T14:59:19.659Z,97646.63
2023-05-22T15:01:26.537Z,97651.03
2023-05-22T15:03:31.822Z,97644.22
2023-05-22T15:05:39.693Z,97644.91
2023-05-22T15:07:46.713Z,97645.66
2023-05-22T15:09:56.558Z,97647.28
2023-05-22T15:12:01.711Z,97640.75
2023-05-22T15:14:06.657Z,97639.56
2023-05-22T15:16:11.677Z,97627.47
2023-05-22T15:18:17.381Z,97629.28
2023-05-22T15:20:22.326Z,97626.84
2023-05-22T15:22:27.409Z,97619.13
2023-05-22T15:24:34.980Z,97625.34
2023-05-22T15:26:52.961Z,97622.75
2023-05-22T15:29:08.311Z,97615.53
2023-05-22T15:31:13.555Z,97612.44
2023-05-22T15:33:18.756Z,97622.84
2023-05-22T15:35:23.758Z,97615.50
2023-05-22T15:37:30.317Z,97610.19
2023-05-22T15:39:37.157Z,97600.44
2023-05-22T15:41:46.602Z,97603.06
2023-05-22T15:46:33.700Z,97601.53
2023-05-22T15:48:39.007Z,97602.81
2023-05-22T15:50:50.053Z,97603.16
2023-05-22T15:53:02.154Z,97605.38
2023-05-22T15:55:07.854Z,97605.97
2023-05-22T15:57:12.833Z,97601.47
2023-05-22T15:59:17.794Z,97607.50
2023-05-22T16:01:22.745Z,97607.81
2023-05-22T16:03:30.534Z,97609.47
2023-05-22T16:05:35.817Z,97609.94
2023-05-22T16:07:41.043Z,97607.00
2023-05-22T16:09:45.962Z,97600.56
2023-05-22T16:11:50.904Z,97610.66
2023-05-22T16:13:55.934Z,97609.38
2023-05-22T16:16:01.885Z,97617.63
2023-05-22T16:18:07.237Z,97605.53
2023-05-22T16:20:15.512Z,97605.00
2023-05-22T16:22:26.299Z,97612.09
2023-05-22T16:24:37.223Z,97616.56
2023-05-22T16:26:42.236Z,97615.00
2023-05-22T16:28:47.162Z,97614.47
2023-05-22T16:30:52.073Z,97606.13
2023-05-22T16:32:57.195Z,97606.28
2023-05-22T16:35:02.203Z,97606.97
2023-05-22T16:37:09.839Z,97614.88
2023-05-22T16:39:15.716Z,97607.28
2023-05-22T16:41:48.017Z,97603.75
2023-05-22T16:43:53.388Z,97611.84
2023-05-22T16:45:58.617Z,97614.72
2023-05-22T16:48:03.647Z,97613.09
2023-05-22T16:50:10.605Z,97616.34
2023-05-22T16:52:22.432Z,97616.53
2023-05-22T16:54:27.346Z,97614.03
2023-05-22T16:56:34.348Z,97620.41
2023-05-22T16:58:41.253Z,97620.59
2023-05-22T17:00:46.431Z,97610.66
2023-05-22T17:02:52.823Z,97615.44
2023-05-22T17:05:00.646Z,97615.34
2023-05-22T17:07:08.885Z,97618.25
2023-05-22T17:09:16.469Z,97621.34
2023-05-22T17:11:21.454Z,97613.88
2023-05-22T17:13:26.616Z,97609.72
2023-05-22T17:15:32.002Z,97622.06
2023-05-22T17:17:37.026Z,97617.13
2023-05-22T17:19:42.046Z,97617.06
2023-05-22T17:21:47.551Z,97611.47
2023-05-22T17:23:52.564Z,97621.56
2023-05-22T17:26:00.169Z,97616.16
2023-05-22T17:28:05.141Z,97621.06
2023-05-22T17:30:11.558Z,97621.81
2023-05-22T17:32:16.491Z,97622.44
2023-05-22T17:34:21.812Z,97620.56
2023-05-22T17:36:26.447Z,97619.09
2023-05-22T17:38:31.595Z,97617.13
2023-05-22T17:40:44.638Z,97616.06
2023-05-22T17:42:53.359Z,97615.03
2023-05-22T17:45:09.346Z,97616.06
2023-05-22T17:47:14.432Z,97625.31
2023-05-22T17:49:19.525Z,97621.78
2023-05-22T17:51:24.663Z,97624.03
2023-05-22T17:53:34.904Z,97622.56
2023-05-22T17:55:41.222Z,97625.63
2023-05-22T17:57:46.766Z,97624.97
2023-05-22T17:59:55.445Z,97623.22
2023-05-22T18:02:00.406Z,97622.97
2023-05-22T18:04:05.586Z,97630.75
2023-05-22T18:06:10.929Z,97625.50
2023-05-22T18:08:16.020Z,97624.81
2023-05-22T18:10:20.963Z,97617.38
2023-05-22T18:12:31.788Z,97621.59
2023-05-22T18:14:37.301Z,97621.69
2023-05-22T18:16:45.218Z,97621.41
2023-05-22T18:18:50.601Z,97622.53
2023-05-22T18:20:56.299Z,97623.75
2023-05-22T18:23:03.544Z,97631.50
2023-05-22T18:25:10.737Z,97631.22
2023-05-22T18:27:15.706Z,97641.03
2023-05-22T18:29:23.060Z,97630.34
2023-05-22T18:31:28.277Z,97643.63
2023-05-22T18:33:36.202Z,97633.66
2023-05-22T18:35:45.305Z,97636.53
2023-05-22T18:37:51.758Z,97638.97
2023-05-22T18:39:56.885Z,97644.44
2023-05-22T18:42:02.598Z,97644.53
2023-05-22T18:44:18.112Z,97651.94
2023-05-22T18:46:24.118Z,97649.72
2023-05-22T18:48:30.167Z,97653.84
2023-05-22T18:50:38.379Z,97660.91
2023-05-22T18:52:43.841Z,97654.59
2023-05-22T18:54:48.494Z,97664.88
2023-05-22T18:56:53.838Z,97663.75
2023-05-22T18:58:59.154Z,97661.63
2023-05-22T19:01:06.559Z,97675.84
2023-05-22T19:03:12.567Z,97672.22
2023-05-22T19:05:20.916Z,97675.94
2023-05-22T19:07:28.517Z,97670.00
2023-05-22T19:09:33.433Z,97673.38
2023-05-22T19:11:38.493Z,97674.78
2023-05-22T19:14:02.031Z,97680.84
2023-05-22T19:16:07.588Z,97686.19
2023-05-22T19:18:12.730Z,97693.72
2023-05-22T19:20:17.814Z,97697.22
2023-05-22T19:22:22.640Z,97705.06
2023-05-22T19:24:30.699Z,97702.06
2023-05-22T19:26:35.840Z,97709.56
2023-05-22T19:28:41.072Z,97712.22
2023-05-22T19:30:46.331Z,97719.56
2023-05-22T19:32:55.929Z,97716.72
2023-05-22T19:35:00.929Z,97719.72
2023-05-22T19:37:05.864Z,97715.25
2023-05-22T19:39:10.901Z,97718.91
2023-05-22T19:41:18.513Z,97710.75
2023-05-22T19:43:24.423Z,97713.59
2023-05-22T19:45:29.620Z,97714.91
2023-05-22T19:47:34.603Z,97718.72
2023-05-22T19:49:40.259Z,97719.22
2023-05-22T19:51:46.123Z,97718.19
2023-05-22T19:53:53.850Z,97722.50
2023-05-22T19:55:59.608Z,97726.66
2023-05-22T19:58:07.277Z,97726.16
2023-05-22T20:00:16.178Z,97725.44
2023-05-22T20:02:21.378Z,97721.13
2023-05-22T20:04:26.584Z,97721.94
2023-05-22T20:06:33.888Z,97725.06
2023-05-22T20:08:39.008Z,97726.41
2023-05-22T20:10:44.289Z,97725.72
2023-05-22T20:12:49.281Z,97730.84
2023-05-22T20:14:58.527Z,97725.31
2023-05-22T20:17:03.425Z,97726.97
2023-05-22T20:19:09.377Z,97723.13
2023-05-22T20:21:14.474Z,97720.63
2023-05-22T20:23:19.470Z,97721.91
2023-05-22T20:25:24.685Z,97726.34
2023-05-22T20:27:29.833Z,97730.31
2023-05-22T20:29:34.809Z,97728.13
2023-05-22T20:31:44.708Z,97718.56
2023-05-22T20:33:49.746Z,97728.88
2023-05-22T20:35:54.768Z,97727.69
2023-05-22T20:38:02.666Z,97735.00
2023-05-22T20:40:09.525Z,97740.44
2023-05-22T20:42:15.194Z,97740.97
2023-05-22T20:44:23.832Z,97740.97
2023-05-22T20:46:29.453Z,97755.56
2023-05-22T20:48:38.153Z,97762.75
2023-05-22T20:50:43.678Z,97760.28
2023-05-22T20:52:48.645Z,97758.66
2023-05-22T20:54:53.575Z,97767.63
2023-05-22T20:56:59.837Z,97767.41
2023-05-22T20:59:04.839Z,97772.56
2023-05-22T21:01:10.519Z,97773.25
2023-05-22T21:03:16.472Z,97771.94
2023-05-22T21:05:24.272Z,97777.31
2023-05-22T21:07:30.613Z,97778.25
2023-05-22T21:09:35.745Z,97772.81
2023-05-22T21:11:40.396Z,97780.13
2023-05-22T21:13:45.403Z,97774.19
2023-05-22T21:15:50.079Z,97776.16
2023-05-22T21:17:55.016Z,97775.84
2023-05-22T21:20:01.036Z,97771.22
2023-05-22T21:22:08.862Z,97762.78
2023-05-22T21:24:14.014Z,97767.13
2023-05-22T21:26:22.453Z,97767.25
2023-05-22T21:28:27.611Z,97770.53
2023-05-22T21:30:32.306Z,97767.31
2023-05-22T21:32:37.324Z,97771.03
2023-05-22T21:34:42.075Z,97770.59
2023-05-22T21:36:49.971Z,97765.22
2023-05-22T21:39:00.397Z,97775.75
2023-05-22T21:41:06.261Z,97768.41
2023-05-22T21:43:11.315Z,97762.06
2023-05-22T21:45:16.038Z,97755.44
2023-05-22T21:47:20.957Z,97758.25
2023-05-22T21:49:25.976Z,97756.19
2023-05-22T21:51:31.980Z,97761.28
2023-05-22T21:53:36.934Z,97763.69
2023-05-22T21:55:44.529Z,97753.09
2023-05-22T21:57:49.476Z,97750.16
2023-05-22T21:59:57.378Z,97759.06
2023-05-22T22:02:02.697Z,97752.81
2023-05-22T22:04:07.954Z,97749.31
2023-05-22T22:06:13.128Z,97754.63
2023-05-22T22:08:17.882Z,97749.69
2023-05-22T22:10:23.011Z,97753.47
2023-05-22T22:12:30.799Z,97750.44
2023-05-22T22:14:35.719Z,97752.03
2023-05-22T22:16:40.880Z,97757.06
2023-05-22T22:18:49.215Z,97761.53
2023-05-22T22:20:56.104Z,97760.25
2023-05-22T22:23:01.412Z,97756.91
2023-05-22T22:25:06.755Z,97756.03
2023-05-22T22:27:11.697Z,97763.88
2023-05-22T22:29:19.272Z,97754.75
2023-05-22T22:31:24.745Z,97757.09
2023-05-22T22:33:30.536Z,97754.16
2023-05-22T22:35:35.658Z,97760.44
2023-05-22T22:37:41.308Z,97759.50
2023-05-22T22:39:46.261Z,97757.16
2023-05-22T22:41:51.012Z,97758.72
2023-05-22T22:43:56.309Z,97766.41
2023-05-22T22:46:03.957Z,97763.88
2023-05-22T22:48:09.104Z,97763.75
2023-05-22T22:50:14.372Z,97760.69
2023-05-22T22:52:19.294Z,97763.47
2023-05-22T22:54:24.518Z,97764.72
2023-05-22T22:56:30.661Z,97769.63
2023-05-22T22:58:36.735Z,97764.59
2023-05-22T23:00:41.748Z,97773.53
2023-05-22T23:02:49.136Z,97770.75
2023-05-22T23:04:55.524Z,97774.41
2023-05-22T23:07:00.611Z,97775.50
2023-05-22T23:09:05.595Z,97777.91
2023-05-22T23:11:10.569Z,97787.09
2023-05-22T23:13:16.247Z,97781.13
2023-05-22T23:15:21.414Z,97784.31
2023-05-22T23:17:26.090Z,97784.19
2023-05-22T23:19:36.946Z,97784.19
2023-05-22T23:21:44.131Z,97786.81
2023-05-22T23:23:49.079Z,97792.28
2023-05-22T23:25:53.964Z,97802.00
2023-05-22T23:27:58.911Z,97795.19
2023-05-22T23:30:04.612Z,97804.25
2023-05-22T23:32:11.243Z,97799.78
2023-05-22T23:34:17.250Z,97802.25
2023-05-22T23:36:25.335Z,97803.25
2023-05-22T23:38:30.587Z,97797.66
2023-05-22T23:40:35.587Z,97803.47
2023-05-22T23:42:40.337Z,97803.47
2023-05-22T23:44:45.357Z,97808.06
2023-05-22T23:46:50.902Z,97811.81
2023-05-22T23:48:56.033Z,97803.75
2023-05-22T23:51:00.976Z,97810.97
2023-05-22T23:53:08.522Z,97810.69
2023-05-22T23:55:13.541Z,97821.66
2023-05-22T23:57:18.648Z,97817.47
2023-05-22T23:59:23.913Z,97813.31
